Time;durP1;ratioP1;P1;durP2;ratioP2;P2;SDS_P1;SDS_P2;PMS_P1;PMS_P2;Temp;Humidity;BMP_temperature;BMP_pressure;BME280_temperature;BME280_humidity;BME280_pressure;Samples;Min_cycle;Max_cycle;Signal;HPM_P1;HPM_P2
2022/12/06 00:01:18;;;;;;;40.37;24.30;;;6.20;99.90;;;;;;5021441;28;20399;-78
2022/12/06 00:03:45;;;;;;;41.57;25.13;;;6.10;99.90;;;;;;5006276;28;20045;-79
2022/12/06 00:06:16;;;;;;;41.07;25.37;;;6.10;99.90;;;;;;5005821;28;20404;-79
2022/12/06 00:08:42;;;;;;;;;;;6.10;99.90;;;;;;4974512;28;20037;-79
2022/12/06 00:11:13;;;;;;;39.70;24.57;;;6.10;99.90;;;;;;5005439;28;19910;-79
2022/12/06 00:13:39;;;;;;;41.15;24.33;;;6.10;99.90;;;;;;4996410;28;20030;-79
2022/12/06 00:16:07;;;;;;;41.33;25.33;;;6.20;99.90;;;;;;4972829;28;20027;-79
2022/12/06 00:18:34;;;;;;;36.07;24.30;;;6.20;99.90;;;;;;5005418;28;20070;-79
2022/12/06 00:21:14;;;;;;;38.87;24.63;;;6.20;99.90;;;;;;5019970;28;20023;-79
2022/12/06 00:23:47;;;;;;;36.17;24.00;;;6.20;99.90;;;;;;5004795;28;20057;-79
2022/12/06 00:26:14;;;;;;;38.47;23.70;;;6.20;99.90;;;;;;4968951;28;20066;-79
2022/12/06 00:28:40;;;;;;;38.50;25.17;;;6.10;99.90;;;;;;5005539;28;20066;-79
2022/12/06 00:31:08;;;;;;;38.63;25.53;;;6.10;99.90;;;;;;4991985;28;20037;-79
2022/12/06 00:33:35;;;;;;;35.93;21.83;;;6.10;99.90;;;;;;4992843;28;20034;-79
2022/12/06 00:36:12;;;;;;;23.10;16.23;;;6.10;99.90;;;;;;5025178;28;20483;-78
2022/12/06 00:38:38;;;;;;;33.63;22.30;;;5.90;99.90;;;;;;4960327;28;20397;-79
2022/12/06 00:41:06;;;;;;;36.87;23.57;;;6.00;99.90;;;;;;5005564;28;20041;-79
2022/12/06 00:43:33;;;;;;;34.53;22.93;;;6.00;99.90;;;;;;5006625;28;20046;-79
2022/12/06 00:45:59;;;;;;;41.10;24.03;;;6.00;99.90;;;;;;4976572;28;20475;-79
2022/12/06 00:48:25;;;;;;;39.50;24.57;;;6.00;99.90;;;;;;4959827;28;20046;-79
2022/12/06 00:50:51;;;;;;;33.33;21.77;;;6.00;99.90;;;;;;4975171;28;20387;-78
2022/12/06 00:53:18;;;;;;;43.33;23.53;;;6.00;99.90;;;;;;5023554;28;20106;-79
2022/12/06 00:55:44;;;;;;;37.97;23.83;;;6.00;99.90;;;;;;4997448;28;20049;-79
2022/12/06 00:58:10;;;;;;;31.07;22.73;;;6.00;99.90;;;;;;4977235;28;20041;-78
2022/12/06 01:00:37;;;;;;;36.93;23.63;;;6.10;99.90;;;;;;4972901;28;20031;-79
2022/12/06 01:03:03;;;;;;;35.37;23.47;;;6.00;99.90;;;;;;5007189;28;20042;-79
2022/12/06 01:05:29;;;;;;;34.27;22.40;;;6.00;99.90;;;;;;4955910;28;20042;-79
2022/12/06 01:07:55;;;;;;;31.30;21.70;;;6.00;99.90;;;;;;4992013;28;20034;-79
2022/12/06 01:10:22;;;;;;;35.73;22.70;;;6.00;99.90;;;;;;5006724;28;20053;-78
2022/12/06 01:12:48;;;;;;;31.70;20.87;;;6.00;99.90;;;;;;5023253;28;20495;-79
2022/12/06 01:15:14;;;;;;;29.10;21.17;;;6.00;99.90;;;;;;4992044;28;20046;-79
2022/12/06 01:17:40;;;;;;;34.47;22.17;;;6.00;99.90;;;;;;4975725;28;20037;-79
2022/12/06 01:20:07;;;;;;;24.03;18.13;;;6.00;99.90;;;;;;4993420;28;20361;-79
2022/12/06 01:22:33;;;;;;;32.93;22.63;;;5.90;99.90;;;;;;5023297;28;20042;-79
2022/12/06 01:24:59;;;;;;;16.60;14.30;;;6.00;99.90;;;;;;4991304;28;20050;-79
2022/12/06 01:27:25;;;;;;;29.67;21.23;;;6.00;99.90;;;;;;4990629;28;20049;-79
2022/12/06 01:29:51;;;;;;;25.83;18.10;;;6.00;99.90;;;;;;5008427;28;20038;-79
2022/12/06 01:32:17;;;;;;;27.93;19.60;;;6.00;99.90;;;;;;5006991;28;20491;-79
2022/12/06 01:34:44;;;;;;;33.50;23.90;;;6.00;99.90;;;;;;5006816;28;20033;-79
2022/12/06 01:37:10;;;;;;;31.10;22.03;;;6.10;99.90;;;;;;4998154;28;20484;-79
2022/12/06 01:39:37;;;;;;;34.40;23.03;;;6.10;99.90;;;;;;4991556;28;20046;-79
2022/12/06 01:42:03;;;;;;;36.13;21.80;;;6.10;99.90;;;;;;5004865;28;20026;-79
2022/12/06 01:44:44;;;;;;;31.47;22.40;;;6.00;99.90;;;;;;5008263;28;20034;-79
2022/12/06 01:47:11;;;;;;;21.42;15.40;;;6.00;99.90;;;;;;4991990;28;20027;-79
2022/12/06 01:49:37;;;;;;;32.47;23.33;;;6.00;99.90;;;;;;5007300;28;20041;-79
2022/12/06 01:52:08;;;;;;;37.40;23.80;;;5.90;99.90;;;;;;4955104;28;20499;-78
2022/12/06 01:54:34;;;;;;;34.78;21.95;;;5.90;99.90;;;;;;4987593;28;20042;-78
2022/12/06 01:57:00;;;;;;;33.30;21.20;;;6.00;99.90;;;;;;4998815;28;20030;-79
2022/12/06 01:59:26;;;;;;;36.90;23.53;;;6.00;99.90;;;;;;5007042;28;20475;-78
2022/12/06 02:01:52;;;;;;;26.30;19.23;;;5.90;99.90;;;;;;4987854;28;20475;-79
2022/12/06 02:04:18;;;;;;;35.83;23.20;;;6.00;99.90;;;;;;5006488;28;20487;-78
2022/12/06 02:06:45;;;;;;;30.30;21.37;;;6.00;99.90;;;;;;4973615;28;20022;-78
2022/12/06 02:09:11;;;;;;;27.57;20.83;;;5.90;99.90;;;;;;4973029;28;20035;-79
2022/12/06 02:11:37;;;;;;;31.13;21.83;;;5.90;99.90;;;;;;5005940;28;20383;-79
2022/12/06 02:14:08;;;;;;;37.33;24.40;;;5.90;99.90;;;;;;5006946;28;20045;-78
2022/12/06 02:16:50;;;;;;;35.53;23.55;;;5.90;99.90;;;;;;5007263;28;20479;-79
2022/12/06 02:19:30;;;;;;;45.83;25.80;;;5.90;99.90;;;;;;5003440;28;20496;-79
2022/12/06 02:22:09;;;;;;;45.53;24.87;;;5.90;99.90;;;;;;4989737;28;20408;-79
2022/12/06 02:24:53;;;;;;;44.07;24.90;;;6.00;99.90;;;;;;4973736;28;20046;-79
2022/12/06 02:27:19;;;;;;;40.60;23.77;;;6.10;99.90;;;;;;4991427;28;20044;-79
2022/12/06 02:30:07;;;;;;;39.50;23.80;;;6.10;99.90;;;;;;4989323;28;20034;-79
2022/12/06 02:32:55;;;;;;;35.53;23.10;;;6.10;99.90;;;;;;4987045;28;20038;-79
2022/12/06 02:35:40;;;;;;;35.40;22.33;;;6.00;99.90;;;;;;5001872;28;20039;-79
2022/12/06 02:38:14;;;;;;;30.60;21.40;;;5.90;99.90;;;;;;5002544;28;20041;-79
2022/12/06 02:40:55;;;;;;;31.07;22.20;;;5.90;99.90;;;;;;5009157;28;20027;-78
2022/12/06 02:43:24;;;;;;;31.58;22.48;;;5.90;99.90;;;;;;4942148;28;20065;-79
2022/12/06 02:45:52;;;;;;;32.27;22.90;;;5.90;99.90;;;;;;5005929;28;20030;-78
2022/12/06 02:48:19;;;;;;;36.33;23.23;;;5.90;99.90;;;;;;4973573;28;20026;-79
2022/12/06 02:51:01;;;;;;;33.10;22.53;;;5.90;99.90;;;;;;4986134;28;20038;-79
2022/12/06 02:53:28;;;;;;;35.30;22.47;;;5.90;99.90;;;;;;4979906;28;20038;-78
2022/12/06 02:55:54;;;;;;;32.90;21.13;;;6.00;99.90;;;;;;5014527;28;20040;-79
2022/12/06 02:58:20;;;;;;;32.40;21.50;;;5.90;99.90;;;;;;4960056;28;20030;-79
2022/12/06 03:00:49;;;;;;;26.90;18.60;;;5.90;99.90;;;;;;4997998;28;20035;-79
2022/12/06 03:03:36;;;;;;;28.47;19.50;;;5.90;99.90;;;;;;5014328;28;20022;-78
2022/12/06 03:06:02;;;;;;;30.03;22.33;;;5.90;99.90;;;;;;4986306;28;20038;-79
2022/12/06 03:08:58;;;;;;;29.23;21.37;;;5.80;99.90;;;;;;4983967;28;20041;-79
2022/12/06 03:11:25;;;;;;;31.37;22.17;;;5.90;99.90;;;;;;4988292;28;20350;-79
2022/12/06 03:14:04;;;;;;;24.67;19.83;;;6.00;99.90;;;;;;5001040;28;20041;-78
2022/12/06 03:17:05;;;;;;;23.60;19.13;;;6.00;99.90;;;;;;5005449;28;20030;-79
2022/12/06 03:19:31;;;;;;;22.50;16.80;;;5.90;99.90;;;;;;4989482;28;20050;-79
2022/12/06 03:22:03;;;;;;;26.20;17.67;;;5.80;99.90;;;;;;5001374;28;20037;-79
2022/12/06 03:24:32;;;;;;;31.97;21.17;;;5.80;99.90;;;;;;4957511;28;20061;-79
2022/12/06 03:26:58;;;;;;;28.20;20.90;;;5.80;99.90;;;;;;5003046;28;20042;-79
2022/12/06 03:29:28;;;;;;;30.43;21.53;;;5.80;99.90;;;;;;4974802;28;20058;-79
2022/12/06 03:31:55;;;;;;;30.63;20.53;;;5.90;99.90;;;;;;5007833;28;20049;-79
2022/12/06 03:34:29;;;;;;;30.87;22.07;;;5.90;99.90;;;;;;5006343;28;20030;-79
2022/12/06 03:36:55;;;;;;;30.80;21.70;;;5.90;99.90;;;;;;4974285;28;20026;-79
2022/12/06 03:39:28;;;;;;;24.63;18.40;;;5.90;99.90;;;;;;5008811;28;20035;-79
2022/12/06 03:41:57;;;;;;;25.90;19.83;;;5.90;99.90;;;;;;4991516;28;20038;-79
2022/12/06 03:44:24;;;;;;;22.13;17.37;;;5.80;99.90;;;;;;4993122;28;20434;-78
2022/12/06 03:46:53;;;;;;;29.27;20.90;;;5.80;99.90;;;;;;5023491;28;20038;-78
2022/12/06 03:49:26;;;;;;;23.13;18.33;;;5.80;99.90;;;;;;4975314;28;20038;-79
2022/12/06 03:51:52;;;;;;;21.70;17.27;;;5.70;99.90;;;;;;4977632;28;20035;-78
2022/12/06 03:54:18;;;;;;;21.13;17.33;;;5.70;99.90;;;;;;5009618;28;20049;-79
2022/12/06 03:56:44;;;;;;;29.30;20.13;;;5.60;99.90;;;;;;5007849;28;20041;-79
2022/12/06 03:59:10;;;;;;;26.07;19.13;;;5.60;99.90;;;;;;4961143;28;20050;-78
2022/12/06 04:01:37;;;;;;;26.57;20.17;;;5.60;99.90;;;;;;4992368;28;20499;-79
2022/12/06 04:04:03;;;;;;;28.03;20.17;;;5.70;99.90;;;;;;4992436;28;20061;-79
2022/12/06 04:06:29;;;;;;;22.83;17.53;;;5.70;99.90;;;;;;5008930;28;20034;-79
2022/12/06 04:09:51;;;;;;;35.30;21.73;;;5.70;99.90;;;;;;5009149;28;20072;-78
2022/12/06 04:11:42;;;;;;;26.10;18.53;;;5.70;99.90;;;;;;4997712;28;20031;-78
2022/12/06 04:14:08;;;;;;;30.27;20.10;;;5.80;99.90;;;;;;4992023;28;20041;-77
2022/12/06 04:19:18;;;;;;;18.30;14.03;;;5.60;99.90;;;;;;5001999;28;20041;-79
2022/12/06 04:24:29;;;;;;;22.37;17.50;;;5.60;99.90;;;;;;5009611;28;20069;-78
2022/12/06 04:40:42;;;;;;;29.07;18.93;;;5.60;99.90;;;;;;5005088;28;20033;-78
2022/12/06 04:45:54;;;;;;;23.47;17.23;;;5.60;99.90;;;;;;5008211;28;20053;-79
2022/12/06 04:48:20;;;;;;;22.60;16.87;;;5.60;99.90;;;;;;5008794;28;20391;-78
2022/12/06 04:50:47;;;;;;;13.93;12.80;;;5.50;99.90;;;;;;5009321;28;20039;-78
2022/12/06 04:53:13;;;;;;;26.90;18.80;;;5.50;99.90;;;;;;5008684;28;20479;-78
2022/12/06 04:55:43;;;;;;;31.07;17.70;;;5.50;99.90;;;;;;5013200;28;20038;-79
2022/12/06 04:58:09;;;;;;;24.57;18.43;;;5.50;99.90;;;;;;5004769;28;20038;-79
2022/12/06 05:00:35;;;;;;;25.07;19.30;;;5.50;99.90;;;;;;5000711;28;20400;-78
2022/12/06 05:03:02;;;;;;;25.40;18.77;;;5.60;99.90;;;;;;4967429;28;20047;-79
2022/12/06 05:05:28;;;;;;;39.17;20.53;;;5.70;99.90;;;;;;4984634;28;20066;-79
2022/12/06 05:07:54;;;;;;;26.73;16.80;;;5.70;99.90;;;;;;4979941;28;20047;-81
2022/12/06 05:10:20;;;;;;;29.00;19.67;;;5.60;99.90;;;;;;4962422;28;20404;-81
2022/12/06 05:12:46;;;;;;;25.77;17.33;;;5.50;99.90;;;;;;4948415;28;20047;-80
2022/12/06 05:15:12;;;;;;;27.87;18.67;;;5.50;99.90;;;;;;4973788;28;20384;-80
2022/12/06 05:17:38;;;;;;;31.63;18.50;;;5.50;99.90;;;;;;4974808;28;20388;-80
2022/12/06 05:20:05;;;;;;;30.50;19.20;;;5.40;99.90;;;;;;4970424;28;20053;-80
2022/12/06 05:22:32;;;;;;;22.17;16.00;;;5.40;99.90;;;;;;5008005;28;20380;-80
2022/12/06 05:24:58;;;;;;;50.27;22.33;;;5.50;99.90;;;;;;5006094;28;20053;-80
2022/12/06 05:27:24;;;;;;;35.50;22.23;;;5.50;99.90;;;;;;5007487;28;20038;-80
2022/12/06 05:29:50;;;;;;;37.33;21.47;;;5.40;99.90;;;;;;4990705;28;20031;-80
2022/12/06 05:32:16;;;;;;;23.03;16.73;;;5.50;99.90;;;;;;4992419;28;20035;-80
2022/12/06 05:34:42;;;;;;;32.23;20.40;;;5.40;99.90;;;;;;4992197;28;20383;-80
2022/12/06 05:37:08;;;;;;;35.67;21.37;;;5.40;99.90;;;;;;4991734;28;20479;-80
2022/12/06 05:39:34;;;;;;;27.70;20.10;;;5.40;99.90;;;;;;4992222;28;20037;-80
2022/12/06 05:42:01;;;;;;;30.73;20.10;;;5.50;99.90;;;;;;4991279;28;20392;-80
2022/12/06 05:44:27;;;;;;;31.27;19.97;;;5.40;99.90;;;;;;4990894;28;20069;-80
2022/12/06 05:46:53;;;;;;;30.83;19.50;;;5.30;99.90;;;;;;5007574;28;20035;-80
2022/12/06 05:49:19;;;;;;;32.30;20.43;;;5.40;99.90;;;;;;4992366;28;20061;-80
2022/12/06 05:51:45;;;;;;;30.90;19.27;;;5.30;99.90;;;;;;4991891;28;20045;-80
2022/12/06 05:54:12;;;;;;;29.57;20.13;;;5.40;99.90;;;;;;5007736;28;20372;-80
2022/12/06 05:56:38;;;;;;;32.10;20.30;;;5.40;99.90;;;;;;5011406;28;20044;-80
2022/12/06 05:59:04;;;;;;;34.87;21.77;;;5.30;99.90;;;;;;4995214;28;20398;-80
2022/12/06 06:01:31;;;;;;;19.07;14.87;;;5.30;99.90;;;;;;5010617;28;20376;-80
2022/12/06 06:03:57;;;;;;;31.90;21.30;;;5.30;99.90;;;;;;4964640;28;20543;-80
2022/12/06 06:06:23;;;;;;;12.07;11.07;;;5.20;99.90;;;;;;4989178;28;20038;-79
2022/12/06 06:08:49;;;;;;;28.23;18.97;;;5.20;99.90;;;;;;4990983;28;20494;-80
2022/12/06 06:11:15;;;;;;;32.70;20.80;;;5.20;99.90;;;;;;4991770;28;20030;-80
2022/12/06 06:13:41;;;;;;;30.83;20.33;;;5.10;99.90;;;;;;4975721;28;20382;-80
2022/12/06 06:16:07;;;;;;;34.07;19.70;;;5.20;99.90;;;;;;4955380;28;20026;-80
2022/12/06 06:18:33;;;;;;;27.93;20.47;;;5.20;99.90;;;;;;4981390;28;20050;-80
2022/12/06 06:20:59;;;;;;;35.50;22.83;;;5.20;99.90;;;;;;5006936;28;20046;-80
2022/12/06 06:23:26;;;;;;;34.10;21.47;;;5.10;99.90;;;;;;5007723;28;20432;-80
2022/12/06 06:25:53;;;;;;;33.43;22.50;;;5.20;99.90;;;;;;4975296;28;20046;-80
2022/12/06 06:28:19;;;;;;;24.83;17.07;;;5.10;99.90;;;;;;4959325;28;20038;-80
2022/12/06 06:30:45;;;;;;;37.53;21.10;;;5.10;99.90;;;;;;4958100;28;20031;-81
2022/12/06 06:33:12;;;;;;;39.10;22.90;;;5.10;99.90;;;;;;5003993;28;20034;-80
2022/12/06 06:35:38;;;;;;;31.87;21.33;;;5.10;99.90;;;;;;5006970;28;20038;-80
2022/12/06 06:38:04;;;;;;;34.30;21.93;;;5.10;99.90;;;;;;4991784;28;20035;-80
2022/12/06 06:40:30;;;;;;;37.40;23.60;;;5.00;99.90;;;;;;5001381;28;20041;-80
2022/12/06 06:42:56;;;;;;;39.73;23.77;;;5.00;99.90;;;;;;4991011;28;20472;-80
2022/12/06 06:45:23;;;;;;;22.73;16.50;;;5.00;99.90;;;;;;4991186;28;20045;-80
2022/12/06 06:47:49;;;;;;;44.03;24.13;;;5.00;99.90;;;;;;4991590;28;20065;-81
2022/12/06 06:50:16;;;;;;;36.37;23.60;;;5.10;99.90;;;;;;4991001;28;20045;-80
2022/12/06 06:52:42;;;;;;;37.47;22.87;;;5.00;99.90;;;;;;4993067;28;20038;-80
2022/12/06 06:55:08;;;;;;;27.93;19.57;;;5.00;99.90;;;;;;4977075;28;20041;-80
2022/12/06 06:57:35;;;;;;;35.77;23.23;;;5.00;99.90;;;;;;4962408;28;20102;-80
2022/12/06 07:00:01;;;;;;;28.23;18.43;;;5.00;99.90;;;;;;4995381;28;20045;-80
2022/12/06 07:02:27;;;;;;;33.00;21.23;;;4.90;99.90;;;;;;4993598;28;20038;-80
2022/12/06 07:04:53;;;;;;;16.90;15.17;;;4.90;99.90;;;;;;5008815;28;20038;-80
2022/12/06 07:07:19;;;;;;;31.10;21.27;;;4.90;99.90;;;;;;4978842;28;20752;-80
2022/12/06 07:09:45;;;;;;;17.37;15.67;;;4.90;99.90;;;;;;4992556;28;20042;-80
2022/12/06 07:12:12;;;;;;;38.60;24.30;;;4.90;99.90;;;;;;4993612;28;20053;-80
2022/12/06 07:14:38;;;;;;;39.47;25.07;;;4.90;99.90;;;;;;4993669;28;20046;-80
2022/12/06 07:17:04;;;;;;;27.90;19.13;;;5.00;99.90;;;;;;5003448;28;20045;-80
2022/12/06 07:19:30;;;;;;;37.80;23.17;;;5.00;99.90;;;;;;5002959;28;20038;-81
2022/12/06 07:21:56;;;;;;;37.27;23.80;;;5.00;99.90;;;;;;5010896;28;20030;-81
2022/12/06 07:24:22;;;;;;;38.30;25.20;;;5.00;99.90;;;;;;5006179;28;20066;-81
2022/12/06 07:26:48;;;;;;;25.87;19.27;;;5.10;99.90;;;;;;4990772;28;20059;-81
2022/12/06 07:29:15;;;;;;;27.63;19.83;;;5.00;99.90;;;;;;4979972;28;20061;-81
2022/12/06 07:31:41;;;;;;;27.80;18.60;;;5.00;99.90;;;;;;5020825;28;20459;-80
2022/12/06 07:34:08;;;;;;;32.60;22.00;;;5.10;99.90;;;;;;5009686;28;20026;-80
2022/12/06 07:36:34;;;;;;;35.70;22.67;;;5.00;99.90;;;;;;4978281;28;20415;-81
2022/12/06 07:39:00;;;;;;;35.23;24.03;;;5.00;99.90;;;;;;4977884;28;20034;-81
2022/12/06 07:46:57;;;;;;;34.20;22.87;;;5.00;99.90;;;;;;5006761;28;20046;-79
2022/12/06 07:49:23;;;;;;;29.03;20.37;;;5.00;99.90;;;;;;5010244;28;20038;-79
2022/12/06 07:51:50;;;;;;;34.50;23.27;;;5.00;99.90;;;;;;4990700;28;20042;-79
2022/12/06 07:54:16;;;;;;;20.80;17.23;;;5.10;99.90;;;;;;4975923;28;20035;-80
2022/12/06 07:56:42;;;;;;;28.07;20.03;;;5.10;99.90;;;;;;4992862;28;20046;-80
2022/12/06 07:59:08;;;;;;;19.43;16.47;;;5.00;99.90;;;;;;4976152;28;20038;-81
2022/12/06 08:01:34;;;;;;;13.87;12.57;;;5.00;99.90;;;;;;4993877;28;20395;-81
2022/12/06 08:04:01;;;;;;;18.70;15.80;;;4.90;99.90;;;;;;4992771;28;20034;-81
2022/12/06 08:06:28;;;;;;;18.63;14.40;;;5.00;99.90;;;;;;4989817;28;20058;-81
2022/12/06 08:08:55;;;;;;;17.83;15.87;;;5.00;99.90;;;;;;4958065;28;20043;-81
2022/12/06 08:11:21;;;;;;;23.07;18.00;;;5.00;99.90;;;;;;4994452;28;20042;-79
2022/12/06 08:13:48;;;;;;;14.70;13.20;;;5.10;99.90;;;;;;4989781;28;20039;-79
2022/12/06 08:16:14;;;;;;;17.87;15.50;;;5.00;99.90;;;;;;4989817;28;20039;-79
2022/12/06 08:18:40;;;;;;;16.33;14.30;;;5.10;99.90;;;;;;4990351;28;20043;-80
2022/12/06 08:21:06;;;;;;;21.63;16.50;;;5.10;99.90;;;;;;5017861;28;20030;-79
2022/12/06 08:23:33;;;;;;;17.70;14.33;;;5.10;99.90;;;;;;4982581;28;20038;-80
2022/12/06 08:26:00;;;;;;;17.30;15.33;;;5.10;99.90;;;;;;5009309;28;20061;-80
2022/12/06 08:28:27;;;;;;;17.80;15.93;;;5.10;99.90;;;;;;5008654;28;20018;-80
2022/12/06 08:30:53;;;;;;;16.40;14.60;;;5.20;99.90;;;;;;4956183;28;20050;-79
2022/12/06 08:33:20;;;;;;;16.47;14.73;;;5.20;99.90;;;;;;4976099;28;20042;-83
2022/12/06 08:35:50;;;;;;;21.87;16.27;;;5.20;99.90;;;;;;5009497;28;20468;-81
2022/12/06 08:38:16;;;;;;;16.73;14.80;;;5.30;99.90;;;;;;4993324;28;20038;-79
2022/12/06 08:40:43;;;;;;;20.13;15.90;;;5.30;99.90;;;;;;4986496;28;20057;-79
2022/12/06 08:43:09;;;;;;;20.13;16.27;;;5.30;99.90;;;;;;4990926;28;20476;-80
2022/12/06 08:45:35;;;;;;;17.53;15.63;;;5.30;99.90;;;;;;4991739;28;20384;-79
2022/12/06 08:48:02;;;;;;;22.33;17.03;;;5.20;99.90;;;;;;5025816;28;20034;-79
2022/12/06 08:50:28;;;;;;;28.43;16.43;;;5.20;99.90;;;;;;5025707;28;20045;-79
2022/12/06 08:52:54;;;;;;;34.70;21.23;;;5.30;99.90;;;;;;5007182;28;20026;-79
2022/12/06 08:55:20;;;;;;;32.87;22.10;;;5.20;99.90;;;;;;4994722;28;20045;-79
2022/12/06 08:57:46;;;;;;;40.03;23.07;;;5.30;99.90;;;;;;4986125;28;20380;-79
2022/12/06 09:00:13;;;;;;;41.20;24.17;;;5.20;99.90;;;;;;4993545;28;20033;-80
2022/12/06 09:02:40;;;;;;;45.37;26.10;;;5.30;99.90;;;;;;4992667;28;20471;-80
2022/12/06 09:05:07;;;;;;;47.27;27.27;;;5.30;99.90;;;;;;5008958;28;20476;-80
2022/12/06 09:07:33;;;;;;;43.27;27.07;;;5.20;99.90;;;;;;4975764;28;20044;-80
2022/12/06 09:09:59;;;;;;;46.07;26.50;;;5.30;99.90;;;;;;5008550;28;20033;-80
2022/12/06 09:12:25;;;;;;;44.10;24.93;;;5.30;99.90;;;;;;5007580;28;20031;-79
2022/12/06 09:14:51;;;;;;;43.80;27.50;;;5.30;99.90;;;;;;5002342;28;20475;-81
2022/12/06 09:17:17;;;;;;;50.47;28.00;;;5.30;99.90;;;;;;4984249;28;20038;-79
2022/12/06 09:19:43;;;;;;;49.40;27.57;;;5.30;99.90;;;;;;4993519;28;20400;-80
2022/12/06 09:22:09;;;;;;;44.83;25.80;;;5.40;99.90;;;;;;5000065;28;20027;-80
2022/12/06 09:24:36;;;;;;;42.47;24.67;;;5.30;99.90;;;;;;5005514;28;20037;-79
2022/12/06 09:27:02;;;;;;;42.20;27.33;;;5.30;99.90;;;;;;4993474;28;20049;-87
2022/12/06 09:29:28;;;;;;;40.73;26.47;;;5.40;99.90;;;;;;4992327;28;20560;-86
2022/12/06 09:31:54;;;;;;;43.00;27.53;;;5.70;99.90;;;;;;4999978;28;20030;-88
2022/12/06 09:34:20;;;;;;;52.07;29.23;;;5.80;99.90;;;;;;4989272;28;20034;-85
2022/12/06 09:36:55;;;;;;;48.07;28.60;;;5.90;99.90;;;;;;4991855;28;20037;-79
2022/12/06 09:39:25;;;;;;;15.57;14.23;;;6.00;99.90;;;;;;4992178;28;20034;-78
2022/12/06 09:41:57;;;;;;;38.27;24.40;;;6.00;99.90;;;;;;5007980;28;20026;-79
2022/12/06 09:44:28;;;;;;;45.63;29.77;;;5.70;99.90;;;;;;4992113;28;20042;-87
2022/12/06 09:46:54;;;;;;;50.13;30.70;;;5.70;99.90;;;;;;5007279;28;20043;-84
2022/12/06 09:49:27;;;;;;;44.03;28.27;;;5.90;99.90;;;;;;5024197;28;20053;-81
2022/12/06 09:52:02;;;;;;;41.87;27.70;;;6.10;99.90;;;;;;4975560;28;20042;-81
2022/12/06 09:54:49;;;;;;;42.33;28.17;;;6.10;99.90;;;;;;4992077;28;20037;-79
2022/12/06 09:57:24;;;;;;;22.50;17.23;;;6.00;99.90;;;;;;5010397;28;20045;-79
2022/12/06 10:00:18;;;;;;;42.57;26.53;;;5.80;99.90;;;;;;5011617;28;20030;-81
2022/12/06 10:03:02;;;;;;;37.03;25.37;;;5.80;99.90;;;;;;4982991;28;20050;-80
2022/12/06 10:05:34;;;;;;;41.40;28.07;;;6.00;99.90;;;;;;4996811;28;20046;-80
2022/12/06 10:08:17;;;;;;;43.60;28.40;;;6.10;99.90;;;;;;4991330;28;20035;-87
2022/12/06 10:11:08;;;;;;;33.57;25.57;;;6.20;99.90;;;;;;4976511;28;20035;-85
2022/12/06 10:13:56;;;;;;;37.70;26.97;;;6.30;99.90;;;;;;4973937;28;20487;-81
2022/12/06 10:16:51;;;;;;;38.10;28.00;;;6.30;99.90;;;;;;4992741;28;20037;-79
2022/12/06 10:19:49;;;;;;;31.10;23.93;;;6.20;99.90;;;;;;4976820;28;20484;-80
2022/12/06 10:22:39;;;;;;;33.17;24.87;;;5.90;99.90;;;;;;4979249;28;20046;-86
2022/12/06 10:25:29;;;;;;;38.70;27.00;;;5.90;99.90;;;;;;4990816;28;20053;-86
2022/12/06 10:28:12;;;;;;;27.73;20.70;;;6.10;99.90;;;;;;4977652;28;20150;-81
2022/12/06 10:30:58;;;;;;;24.17;20.27;;;6.20;99.90;;;;;;4963998;28;20037;-81
2022/12/06 10:33:30;;;;;;;32.23;24.43;;;6.20;99.90;;;;;;4957499;28;20030;-80
2022/12/06 10:36:01;;;;;;;33.77;24.27;;;6.10;99.90;;;;;;4973064;28;20058;-80
2022/12/06 10:38:52;;;;;;;26.02;21.65;;;6.00;99.90;;;;;;4955182;28;20380;-80
2022/12/06 10:42:01;;;;;;;34.27;25.20;;;6.00;99.90;;;;;;4962008;28;20058;-81
2022/12/06 10:47:02;;;;;;;34.57;23.77;;;6.00;99.90;;;;;;4934530;29;20058;-80
2022/12/06 10:47:57;;;;;;;24.43;21.20;;;6.00;99.90;;;;;;4888492;29;20052;-80
2022/12/06 10:50:29;;;;;;;34.73;23.80;;;6.00;99.90;;;;;;4898201;29;20040;-79
2022/12/06 10:52:58;;;;;;;39.17;26.70;;;6.10;99.90;;;;;;4913963;29;20052;-79
2022/12/06 10:55:41;;;;;;;37.73;25.77;;;6.00;99.90;;;;;;4910435;29;20133;-80
2022/12/06 10:58:33;;;;;;;33.93;24.80;;;6.10;99.90;;;;;;4908955;29;20496;-80
2022/12/06 11:01:05;;;;;;;38.80;27.73;;;6.20;99.90;;;;;;4925408;29;20051;-79
2022/12/06 11:03:43;;;;;;;35.40;23.63;;;6.20;99.90;;;;;;4936006;29;20047;-80
2022/12/06 11:06:26;;;;;;;37.93;27.13;;;6.20;99.90;;;;;;4931113;29;20066;-78
2022/12/06 11:08:55;;;;;;;38.07;27.47;;;6.30;99.90;;;;;;4919877;29;20039;-79
2022/12/06 11:11:28;;;;;;;26.80;19.57;;;6.30;99.90;;;;;;4934200;29;20043;-79
2022/12/06 11:14:23;;;;;;;36.27;26.00;;;6.30;99.90;;;;;;4919250;29;20048;-79
2022/12/06 11:17:20;;;;;;;33.70;24.23;;;6.20;99.90;;;;;;4970490;28;20504;-78
2022/12/06 11:20:21;;;;;;;35.60;23.90;;;6.40;99.90;;;;;;4933415;29;20032;-78
2022/12/06 11:23:18;;;;;;;33.58;25.08;;;6.40;99.90;;;;;;4932913;29;20420;-78
2022/12/06 11:25:57;;;;;;;40.47;30.13;;;6.40;99.90;;;;;;4972891;28;20057;-79
2022/12/06 11:28:39;;;;;;;37.57;27.20;;;6.50;99.90;;;;;;4966061;28;20038;-80
2022/12/06 11:31:15;;;;;;;38.27;30.23;;;6.60;99.90;;;;;;4992408;28;20041;-79
2022/12/06 11:33:41;;;;;;;30.93;24.77;;;6.70;99.90;;;;;;4955237;28;20031;-79
2022/12/06 11:36:08;;;;;;;36.53;26.90;;;6.60;99.90;;;;;;4955301;28;20492;-79
2022/12/06 11:38:34;;;;;;;29.83;22.57;;;6.60;99.90;;;;;;4953231;28;20505;-78
2022/12/06 11:41:00;;;;;;;36.40;25.80;;;6.60;99.90;;;;;;4954026;29;20389;-78
2022/12/06 11:43:30;;;;;;;50.63;36.13;;;6.60;99.90;;;;;;4968527;28;20039;-79
2022/12/06 11:45:56;;;;;;;35.73;28.67;;;6.60;99.90;;;;;;4967257;28;20041;-78
2022/12/06 11:48:23;;;;;;;32.97;23.60;;;6.80;99.90;;;;;;4995683;28;20038;-78
2022/12/06 11:50:50;;;;;;;28.30;23.27;;;6.80;99.90;;;;;;4959409;28;20047;-78
2022/12/06 11:53:27;;;;;;;18.73;16.93;;;6.70;99.90;;;;;;4976544;28;20034;-78
2022/12/06 11:56:05;;;;;;;29.67;24.33;;;6.60;99.90;;;;;;4984607;28;20038;-77
2022/12/06 11:58:40;;;;;;;32.80;26.10;;;6.60;99.90;;;;;;4975614;28;20042;-78
2022/12/06 12:01:13;;;;;;;31.47;24.47;;;6.60;99.90;;;;;;4981952;28;20038;-78
2022/12/06 12:03:41;;;;;;;30.73;22.57;;;6.70;99.90;;;;;;4992395;28;20035;-79
2022/12/06 12:06:17;;;;;;;33.93;27.43;;;6.70;99.90;;;;;;4987799;28;20046;-78
2022/12/06 12:09:00;;;;;;;28.87;25.50;;;6.90;99.90;;;;;;5019305;28;20038;-80
2022/12/06 12:11:31;;;;;;;30.67;22.90;;;6.90;99.90;;;;;;4996237;28;20057;-80
2022/12/06 12:14:01;;;;;;;30.58;24.98;;;6.90;99.90;;;;;;4993087;28;20040;-79
2022/12/06 12:16:34;;;;;;;27.25;22.77;;;6.80;99.90;;;;;;4976398;28;20045;-79
2022/12/06 12:19:01;;;;;;;29.40;25.00;;;6.90;99.90;;;;;;4977475;28;20392;-80
2022/12/06 12:21:33;;;;;;;28.87;25.33;;;7.00;99.90;;;;;;5025807;28;20495;-79
2022/12/06 12:23:59;;;;;;;27.43;21.17;;;7.00;99.90;;;;;;4975024;28;20038;-79
2022/12/06 12:26:34;;;;;;;23.67;21.27;;;6.90;99.90;;;;;;4980807;28;20046;-80
2022/12/06 12:29:07;;;;;;;35.20;27.83;;;6.90;99.90;;;;;;4992334;28;20039;-79
2022/12/06 12:31:54;;;;;;;31.97;25.87;;;6.80;99.90;;;;;;4984723;28;20039;-80
2022/12/06 12:34:27;;;;;;;33.03;27.17;;;6.90;99.90;;;;;;4992578;28;20038;-79
2022/12/06 12:37:03;;;;;;;33.73;28.47;;;7.00;99.90;;;;;;5006648;28;20059;-79
2022/12/06 12:39:39;;;;;;;29.10;24.20;;;7.00;99.90;;;;;;5005157;28;20391;-80
2022/12/06 12:42:25;;;;;;;34.13;27.47;;;7.00;99.90;;;;;;5006177;28;20034;-80
2022/12/06 12:44:57;;;;;;;37.07;27.07;;;6.90;99.90;;;;;;4975722;28;20047;-80
2022/12/06 12:47:23;;;;;;;33.07;26.67;;;6.90;99.90;;;;;;4959122;28;20499;-80
2022/12/06 12:50:22;;;;;;;28.27;23.57;;;7.00;99.90;;;;;;5008471;28;20026;-79
2022/12/06 12:52:49;;;;;;;27.67;22.93;;;6.90;99.90;;;;;;4994177;28;20050;-79
2022/12/06 12:55:19;;;;;;;27.93;24.87;;;6.90;99.90;;;;;;4996044;28;21220;-79
2022/12/06 12:57:52;;;;;;;28.67;23.53;;;6.90;99.90;;;;;;4981928;28;20049;-79
2022/12/06 13:00:27;;;;;;;30.93;26.00;;;6.90;99.90;;;;;;4985899;28;20050;-79
2022/12/06 13:02:57;;;;;;;33.93;25.13;;;7.00;99.90;;;;;;5009740;28;20041;-79
2022/12/06 13:05:27;;;;;;;28.50;24.37;;;7.10;99.90;;;;;;4989336;28;20042;-79
2022/12/06 13:07:58;;;;;;;30.67;26.20;;;7.20;99.90;;;;;;4993489;28;20053;-79
2022/12/06 13:10:34;;;;;;;30.27;23.02;;;7.30;99.90;;;;;;4978581;28;20029;-79
2022/12/06 13:13:01;;;;;;;22.93;20.53;;;7.30;99.90;;;;;;4990167;28;20034;-80
2022/12/06 13:15:37;;;;;;;18.37;16.43;;;7.40;99.90;;;;;;5002203;28;20404;-80
2022/12/06 13:18:16;;;;;;;28.10;23.63;;;7.30;99.90;;;;;;4997391;28;20037;-79
2022/12/06 13:20:42;;;;;;;28.63;24.30;;;7.40;99.90;;;;;;5009119;28;20041;-80
2022/12/06 13:23:17;;;;;;;28.97;22.57;;;7.50;99.90;;;;;;4982630;28;20643;-80